Time;durP1;ratioP1;P1;durP2;ratioP2;P2;SDS_P1;SDS_P2;PMS_P1;PMS_P2;Temp;Humidity;BMP_temperature;BMP_pressure;BME280_temperature;BME280_humidity;BME280_pressure;Samples;Min_cycle;Max_cycle;Signal;HPM_P1;HPM_P2
2023/09/06 00:02:07;;;;;;;5.60;5.10;;;20.70;44.70;;;;;;21197;6711;72979;31
2023/09/06 00:04:30;;;;;;;5.32;4.90;;;20.40;45.00;;;;;;21194;6711;66552;31
2023/09/06 00:06:57;;;;;;;5.10;4.60;;;20.10;45.10;;;;;;21190;6713;65644;31
2023/09/06 00:09:22;;;;;;;5.80;5.30;;;19.90;45.50;;;;;;20976;6711;305080;31
2023/09/06 00:11:48;;;;;;;5.30;4.90;;;20.20;45.70;;;;;;20986;6711;275409;31
2023/09/06 00:14:15;;;;;;;5.20;4.80;;;20.60;45.10;;;;;;20984;6711;304242;31
2023/09/06 00:16:40;;;;;;;5.15;4.75;;;20.80;44.40;;;;;;20973;6711;305122;31
2023/09/06 00:19:06;;;;;;;4.90;4.60;;;21.00;43.90;;;;;;21189;6711;68072;31
2023/09/06 00:21:35;;;;;;;4.30;4.00;;;20.80;44.10;;;;;;21203;6711;66112;31
2023/09/06 00:23:58;;;;;;;4.73;4.33;;;20.50;44.50;;;;;;21191;6711;66025;31
2023/09/06 00:26:23;;;;;;;4.97;4.65;;;20.20;44.80;;;;;;21203;6713;67112;31
2023/09/06 00:28:49;;;;;;;5.30;4.00;;;20.10;45.10;;;;;;21200;6711;68380;31
2023/09/06 00:31:14;;;;;;;4.77;4.23;;;19.90;45.20;;;;;;21203;6711;66079;31
2023/09/06 00:33:40;;;;;;;4.20;3.90;;;19.80;45.50;;;;;;21213;6711;68176;31
2023/09/06 00:36:06;;;;;;;4.27;3.97;;;19.70;45.60;;;;;;21199;6711;67418;31
2023/09/06 00:38:32;;;;;;;4.30;4.00;;;19.60;45.70;;;;;;21192;6711;66588;31
2023/09/06 00:40:57;;;;;;;5.13;4.70;;;19.50;45.80;;;;;;20996;6711;334535;31
2023/09/06 00:43:23;;;;;;;5.70;5.20;;;19.80;46.70;;;;;;20989;6711;274220;31
2023/09/06 00:45:50;;;;;;;4.83;4.53;;;20.30;45.70;;;;;;21241;6696;67110;31
2023/09/06 00:48:14;;;;;;;4.87;4.57;;;20.20;45.50;;;;;;21015;6697;274984;31
2023/09/06 00:50:40;;;;;;;5.27;4.83;;;20.30;45.30;;;;;;20975;6711;305529;31
2023/09/06 00:53:05;;;;;;;5.87;5.37;;;20.50;45.10;;;;;;20975;6711;303859;31
2023/09/06 00:55:31;;;;;;;5.95;5.45;;;20.70;44.70;;;;;;21196;6711;66665;31
2023/09/06 00:57:56;;;;;;;5.30;4.80;;;20.50;45.00;;;;;;21184;6711;66108;31
2023/09/06 01:00:25;;;;;;;6.77;6.17;;;20.10;45.40;;;;;;20978;6711;305357;31
2023/09/06 01:02:51;;;;;;;5.90;5.50;;;20.20;45.50;;;;;;21193;6711;66144;31
2023/09/06 01:05:43;;;;;;;5.60;5.10;;;20.00;45.50;;;;;;21187;6711;68709;31
2023/09/06 01:08:09;;;;;;;5.87;5.37;;;19.70;46.00;;;;;;20536;6711;66337;31
2023/09/06 01:10:35;;;;;;;6.15;5.50;;;19.30;46.40;;;;;;20972;6711;332516;31
2023/09/06 01:13:00;;;;;;;5.77;5.23;;;19.50;46.80;;;;;;20978;6711;274198;31
2023/09/06 01:15:25;;;;;;;4.80;4.40;;;19.90;46.20;;;;;;21199;6711;67117;31
2023/09/06 01:17:51;;;;;;;5.23;4.83;;;19.80;46.10;;;;;;20979;6711;307502;31
2023/09/06 01:20:36;;;;;;;5.03;4.37;;;19.90;45.90;;;;;;21195;6711;66143;31
2023/09/06 01:23:11;;;;;;;4.97;4.68;;;19.80;45.80;;;;;;20959;6711;305372;31
2023/09/06 01:25:37;;;;;;;5.25;4.85;;;20.00;45.80;;;;;;20958;6711;303890;31
2023/09/06 01:28:03;;;;;;;4.60;4.30;;;20.30;45.40;;;;;;20993;6711;303028;31
2023/09/06 01:30:29;;;;;;;4.80;4.40;;;20.50;45.10;;;;;;20984;6711;306096;31
2023/09/06 01:32:54;;;;;;;4.80;4.50;;;20.60;44.60;;;;;;20987;6711;306722;31
2023/09/06 01:35:19;;;;;;;5.70;5.17;;;20.80;45.10;;;;;;20974;6711;304522;31
2023/09/06 01:37:45;;;;;;;4.87;4.40;;;20.80;46.00;;;;;;21199;6711;71376;31
2023/09/06 01:40:15;;;;;;;4.40;4.15;;;20.50;46.10;;;;;;21192;6713;72775;31
2023/09/06 01:42:39;;;;;;;5.03;4.57;;;20.10;46.60;;;;;;21193;6711;67109;31
2023/09/06 01:45:06;;;;;;;4.70;4.30;;;19.70;47.20;;;;;;21201;6711;69275;31
2023/09/06 01:47:31;;;;;;;4.40;4.10;;;19.50;47.60;;;;;;21233;6698;68541;31
2023/09/06 01:49:57;;;;;;;5.00;4.70;;;19.30;48.00;;;;;;20981;6711;305903;31
2023/09/06 01:52:22;;;;;;;4.90;4.60;;;19.50;47.90;;;;;;21197;6711;67904;31
2023/09/06 01:54:47;;;;;;;5.60;5.10;;;19.50;47.60;;;;;;20984;6711;303837;31
2023/09/06 01:57:13;;;;;;;4.95;4.65;;;19.60;47.50;;;;;;21199;6711;66652;31
2023/09/06 01:59:39;;;;;;;5.73;5.23;;;19.50;47.50;;;;;;20982;6711;274628;31
2023/09/06 02:02:04;;;;;;;5.00;4.70;;;19.60;47.70;;;;;;20984;6711;334575;31
2023/09/06 02:04:30;;;;;;;5.55;5.05;;;19.80;47.20;;;;;;20981;6713;273790;31
2023/09/06 02:06:55;;;;;;;5.22;4.87;;;20.00;47.00;;;;;;21209;6711;67828;31
2023/09/06 02:09:21;;;;;;;5.50;5.12;;;19.80;47.20;;;;;;20988;6711;274132;31
2023/09/06 02:11:46;;;;;;;5.20;4.70;;;19.70;47.40;;;;;;21207;6711;67046;31
2023/09/06 02:14:12;;;;;;;5.47;5.03;;;19.50;47.60;;;;;;20988;6711;274513;31
2023/09/06 02:16:38;;;;;;;5.65;5.25;;;19.50;48.10;;;;;;20993;6711;287788;31
2023/09/06 02:19:06;;;;;;;5.43;5.03;;;19.70;47.50;;;;;;20986;6711;303837;31
2023/09/06 02:21:30;;;;;;;5.27;4.83;;;19.90;47.20;;;;;;21197;6711;67684;31
2023/09/06 02:23:56;;;;;;;4.83;4.47;;;19.60;47.50;;;;;;21206;6711;66090;31
2023/09/06 02:26:23;;;;;;;5.27;4.97;;;19.20;47.90;;;;;;20950;6711;294897;31
2023/09/06 02:28:50;;;;;;;4.67;4.33;;;19.30;48.30;;;;;;21177;6711;67037;31
2023/09/06 02:31:14;;;;;;;5.45;5.05;;;19.10;48.20;;;;;;20971;6711;302632;31
2023/09/06 02:33:40;;;;;;;5.30;5.00;;;19.20;48.40;;;;;;20982;6711;304739;31
2023/09/06 02:36:05;;;;;;;5.60;5.20;;;19.40;47.70;;;;;;20972;6711;302970;31
2023/09/06 02:38:31;;;;;;;5.20;4.80;;;19.60;47.40;;;;;;20976;6711;304192;31
2023/09/06 02:40:56;;;;;;;4.80;4.40;;;19.70;47.20;;;;;;21183;6713;67731;31
2023/09/06 02:43:22;;;;;;;5.22;4.62;;;19.40;47.50;;;;;;20951;6713;304753;31
2023/09/06 02:45:49;;;;;;;4.90;4.60;;;19.30;47.50;;;;;;21175;6711;66677;31
2023/09/06 02:48:16;;;;;;;4.87;4.57;;;19.10;47.70;;;;;;21162;6713;67050;31
2023/09/06 02:50:40;;;;;;;4.70;4.40;;;18.70;48.30;;;;;;21169;6711;68373;31
2023/09/06 02:53:04;;;;;;;5.23;4.50;;;18.40;48.70;;;;;;21183;6713;67155;31
2023/09/06 02:55:35;;;;;;;5.30;4.90;;;18.20;49.10;;;;;;21007;6698;275029;31
2023/09/06 02:57:56;;;;;;;5.37;4.97;;;18.40;49.90;;;;;;20987;6698;299812;31
2023/09/06 03:02:46;;;;;;;4.43;4.23;;;19.20;49.30;;;;;;21206;6711;67056;31
2023/09/06 03:05:17;;;;;;;5.50;5.10;;;19.00;49.00;;;;;;20988;6711;275228;31
2023/09/06 03:07:40;;;;;;;4.40;4.10;;;19.10;48.20;;;;;;21179;6711;66669;31
2023/09/06 03:10:05;;;;;;;4.60;4.30;;;18.80;48.30;;;;;;21193;6711;67473;31
2023/09/06 03:12:31;;;;;;;5.47;5.07;;;18.50;49.00;;;;;;20978;6711;274150;31
2023/09/06 03:14:59;;;;;;;5.20;4.80;;;18.60;49.00;;;;;;20982;6711;303570;31
2023/09/06 03:17:22;;;;;;;4.60;4.30;;;18.90;49.10;;;;;;21187;6713;67127;31
2023/09/06 03:19:53;;;;;;;5.43;5.03;;;18.80;49.20;;;;;;20964;6711;303021;31
2023/09/06 03:22:13;;;;;;;5.50;5.00;;;18.80;48.50;;;;;;20959;6713;320882;31
2023/09/06 03:24:41;;;;;;;4.62;4.22;;;19.10;48.20;;;;;;21198;6711;89088;31
2023/09/06 03:27:07;;;;;;;5.45;5.05;;;18.80;48.20;;;;;;20981;6711;333782;31
2023/09/06 03:29:33;;;;;;;5.28;4.78;;;18.90;48.60;;;;;;21189;6713;67605;31
2023/09/06 03:31:59;;;;;;;5.77;5.20;;;18.70;48.70;;;;;;20988;6713;274371;31
2023/09/06 03:34:24;;;;;;;5.32;4.93;;;18.70;48.60;;;;;;21005;6706;300790;31
2023/09/06 03:36:51;;;;;;;4.50;4.30;;;18.90;48.40;;;;;;21213;6706;70024;31
2023/09/06 03:39:15;;;;;;;5.28;4.97;;;18.70;48.50;;;;;;20978;6706;306861;31
2023/09/06 03:41:41;;;;;;;4.70;4.40;;;18.60;48.30;;;;;;21219;6706;66681;31
2023/09/06 03:44:07;;;;;;;4.57;4.25;;;18.40;49.20;;;;;;21209;6706;89087;31
2023/09/06 03:46:34;;;;;;;5.33;5.00;;;18.00;49.00;;;;;;20993;6706;274843;31
2023/09/06 03:48:58;;;;;;;4.30;4.10;;;18.10;49.40;;;;;;21204;6706;67935;31
2023/09/06 03:51:24;;;;;;;5.17;4.87;;;18.00;49.40;;;;;;20990;6706;304244;31
2023/09/06 03:53:49;;;;;;;5.50;5.20;;;18.10;49.60;;;;;;20995;6706;332587;31
2023/09/06 03:56:14;;;;;;;4.73;4.33;;;18.30;49.10;;;;;;21213;6706;66627;31
2023/09/06 03:58:41;;;;;;;5.27;4.97;;;18.10;49.30;;;;;;20989;6706;304145;31
2023/09/06 04:01:10;;;;;;;5.50;5.20;;;18.20;49.90;;;;;;20996;6706;302688;31
2023/09/06 04:03:31;;;;;;;4.50;4.22;;;18.40;49.80;;;;;;21199;6706;66688;31
2023/09/06 04:05:59;;;;;;;4.80;4.50;;;18.20;49.60;;;;;;21217;6706;67081;31
2023/09/06 04:08:28;;;;;;;5.10;4.80;;;17.90;49.80;;;;;;21216;6706;67057;31
2023/09/06 04:10:49;;;;;;;5.20;4.90;;;17.60;50.20;;;;;;21208;6706;67314;31
2023/09/06 04:13:14;;;;;;;5.33;4.97;;;17.40;50.60;;;;;;21219;6706;70902;31
2023/09/06 04:15:42;;;;;;;5.53;5.15;;;17.20;50.90;;;;;;21005;6706;276767;31
2023/09/06 04:18:06;;;;;;;6.00;5.60;;;17.50;50.90;;;;;;20993;6706;319640;31
2023/09/06 04:20:31;;;;;;;5.10;4.70;;;17.90;50.40;;;;;;21217;6705;67391;31
2023/09/06 04:22:57;;;;;;;5.17;4.67;;;17.90;50.20;;;;;;21217;6706;67501;31
2023/09/06 04:25:22;;;;;;;5.47;5.03;;;17.60;50.50;;;;;;21217;6706;68457;31
2023/09/06 04:27:48;;;;;;;5.60;5.30;;;17.40;50.90;;;;;;21007;6706;292726;31
2023/09/06 04:30:17;;;;;;;5.70;5.30;;;17.60;50.90;;;;;;21001;6706;303350;31
2023/09/06 04:32:42;;;;;;;6.30;5.90;;;18.00;50.40;;;;;;20993;6706;333075;31
2023/09/06 04:35:08;;;;;;;7.03;6.43;;;18.30;49.20;;;;;;21001;6706;274582;31
2023/09/06 04:37:35;;;;;;;9.20;8.40;;;18.50;48.50;;;;;;20993;6706;303027;31
2023/09/06 04:39:59;;;;;;;8.65;7.95;;;18.60;48.10;;;;;;20999;6706;304251;31
2023/09/06 04:42:24;;;;;;;8.97;8.37;;;18.70;48.00;;;;;;21001;6706;289419;31
2023/09/06 04:44:50;;;;;;;7.23;6.73;;;18.70;48.00;;;;;;21216;6706;71867;31
2023/09/06 04:47:17;;;;;;;7.10;6.60;;;18.30;48.40;;;;;;20999;6706;302961;31
2023/09/06 04:49:45;;;;;;;7.32;6.82;;;18.20;49.00;;;;;;20989;6706;306280;31
2023/09/06 04:52:09;;;;;;;6.13;5.73;;;18.30;48.70;;;;;;21207;6706;67330;31
2023/09/06 04:54:34;;;;;;;5.63;5.17;;;18.00;49.00;;;;;;21214;6706;68815;31
2023/09/06 04:57:00;;;;;;;6.17;5.77;;;17.70;49.90;;;;;;21222;6706;67539;31
2023/09/06 04:59:25;;;;;;;6.10;5.67;;;17.40;50.50;;;;;;21000;6706;298462;31
2023/09/06 05:01:51;;;;;;;6.50;5.90;;;17.60;50.70;;;;;;20997;6706;303048;31
2023/09/06 05:04:19;;;;;;;5.17;4.80;;;18.00;50.40;;;;;;21204;6706;66705;31
2023/09/06 05:06:42;;;;;;;6.07;5.67;;;17.90;50.30;;;;;;20997;6706;287956;31
2023/09/06 05:09:08;;;;;;;5.10;4.65;;;18.00;50.60;;;;;;21199;6706;67054;31
2023/09/06 05:11:33;;;;;;;5.70;5.20;;;17.90;50.60;;;;;;21004;6706;276460;31
2023/09/06 05:13:59;;;;;;;5.53;5.20;;;18.00;50.60;;;;;;21019;6706;274572;31
2023/09/06 05:16:26;;;;;;;5.90;5.40;;;18.30;49.70;;;;;;20995;6706;306823;31
2023/09/06 05:18:50;;;;;;;5.07;4.78;;;18.50;49.20;;;;;;21213;6706;67068;31
2023/09/06 05:21:15;;;;;;;5.00;4.70;;;18.30;49.40;;;;;;21211;6706;67547;31
2023/09/06 05:23:41;;;;;;;5.77;5.23;;;17.90;50.00;;;;;;20999;6706;304077;31
2023/09/06 05:26:06;;;;;;;4.87;4.57;;;17.90;50.30;;;;;;21208;6706;67165;31
2023/09/06 05:28:32;;;;;;;5.60;5.20;;;17.80;50.50;;;;;;20996;6706;275030;31
2023/09/06 05:30:58;;;;;;;5.60;5.27;;;17.80;50.90;;;;;;20989;6706;333038;31
2023/09/06 05:33:23;;;;;;;5.77;5.37;;;18.10;49.90;;;;;;20997;6705;274838;31
2023/09/06 05:35:49;;;;;;;5.60;5.20;;;18.30;49.50;;;;;;20993;6706;330028;31
2023/09/06 05:38:14;;;;;;;4.60;4.30;;;18.40;49.50;;;;;;21204;6706;66614;31
2023/09/06 05:40:40;;;;;;;5.80;4.20;;;18.20;49.90;;;;;;21156;6706;66739;31
2023/09/06 05:43:06;;;;;;;5.72;5.32;;;17.90;50.50;;;;;;20927;6706;304413;31
2023/09/06 05:45:31;;;;;;;4.60;4.30;;;17.90;50.40;;;;;;21188;6706;66673;31
2023/09/06 05:47:57;;;;;;;5.87;5.37;;;17.90;50.60;;;;;;20975;6706;273683;31
2023/09/06 05:50:22;;;;;;;5.97;5.50;;;18.00;50.60;;;;;;20996;6706;305045;31
2023/09/06 05:52:48;;;;;;;5.50;5.05;;;18.20;50.10;;;;;;20986;6706;302207;31
2023/09/06 05:55:14;;;;;;;7.03;4.62;;;18.50;49.90;;;;;;21217;6706;67482;31
2023/09/06 05:57:39;;;;;;;5.50;5.10;;;18.20;50.00;;;;;;20999;6706;302880;31
2023/09/06 06:00:12;;;;;;;6.63;4.53;;;18.20;50.30;;;;;;21223;6706;67468;31
2023/09/06 06:02:31;;;;;;;5.65;5.15;;;18.10;50.60;;;;;;20955;6706;304244;31
2023/09/06 06:04:56;;;;;;;5.10;4.70;;;18.20;51.60;;;;;;21181;6706;66619;31
2023/09/06 06:07:22;;;;;;;5.40;5.10;;;18.20;51.00;;;;;;21018;6706;303040;31
2023/09/06 06:09:48;;;;;;;5.78;5.37;;;18.30;51.20;;;;;;21020;6706;332630;31
2023/09/06 06:12:14;;;;;;;6.00;5.50;;;18.70;51.10;;;;;;21002;6706;273799;31
2023/09/06 06:14:43;;;;;;;6.70;6.10;;;19.10;50.50;;;;;;20986;6706;302247;31
2023/09/06 06:17:20;;;;;;;6.30;5.23;;;19.50;49.90;;;;;;21171;6706;68219;31
2023/09/06 06:19:57;;;;;;;5.03;4.73;;;19.60;50.20;;;;;;20472;6706;69637;31
2023/09/06 06:22:39;;;;;;;5.30;5.00;;;19.50;50.80;;;;;;20713;6706;303505;31
2023/09/06 06:25:08;;;;;;;5.60;5.30;;;19.70;49.80;;;;;;20887;6706;306905;31
2023/09/06 06:27:49;;;;;;;4.80;4.43;;;20.20;49.00;;;;;;21167;6706;66300;31
2023/09/06 06:30:38;;;;;;;5.37;4.97;;;20.30;49.00;;;;;;21110;6706;67057;31
2023/09/06 06:33:10;;;;;;;5.53;4.87;;;20.10;49.20;;;;;;21078;6706;66687;31
2023/09/06 06:35:36;;;;;;;5.00;4.60;;;19.90;49.50;;;;;;21166;6706;74567;31
2023/09/06 06:38:02;;;;;;;5.40;4.35;;;19.80;49.60;;;;;;21196;6706;71021;31
2023/09/06 06:40:27;;;;;;;5.33;4.93;;;19.70;49.70;;;;;;21201;6706;66573;31
2023/09/06 06:42:53;;;;;;;5.40;4.85;;;19.60;49.90;;;;;;21202;6706;66587;31
2023/09/06 06:45:18;;;;;;;5.90;5.40;;;19.60;50.20;;;;;;20984;6705;275184;31
2023/09/06 06:47:44;;;;;;;5.75;5.25;;;19.90;50.20;;;;;;20984;6706;303739;31
2023/09/06 06:50:09;;;;;;;5.03;4.60;;;20.40;49.40;;;;;;21200;6706;68489;31
2023/09/06 06:52:36;;;;;;;5.85;5.45;;;20.40;49.20;;;;;;20982;6706;296497;31
2023/09/06 06:55:00;;;;;;;5.90;5.33;;;20.70;49.10;;;;;;20978;6706;334464;31
2023/09/06 06:57:26;;;;;;;5.28;4.87;;;21.10;49.00;;;;;;21199;6706;67555;31
2023/09/06 06:59:52;;;;;;;5.93;5.53;;;21.10;49.00;;;;;;20976;6706;305968;31
2023/09/06 07:02:17;;;;;;;5.33;4.93;;;21.30;48.40;;;;;;20979;6706;335762;31
2023/09/06 07:04:44;;;;;;;4.93;4.63;;;21.70;47.80;;;;;;21221;6698;75298;31
2023/09/06 07:07:11;;;;;;;4.87;4.47;;;21.70;47.90;;;;;;21219;6698;67561;31
2023/09/06 07:09:36;;;;;;;5.57;5.17;;;21.60;48.10;;;;;;20961;6711;302497;31
2023/09/06 07:12:02;;;;;;;5.23;4.73;;;21.90;48.00;;;;;;21181;6711;67047;31
2023/09/06 07:14:27;;;;;;;4.63;4.17;;;22.00;48.00;;;;;;21176;6711;67180;31
2023/09/06 07:16:54;;;;;;;4.53;4.23;;;21.90;48.10;;;;;;21182;6711;67008;31
2023/09/06 07:19:20;;;;;;;4.67;4.37;;;21.90;48.30;;;;;;21177;6711;70066;31
2023/09/06 07:21:46;;;;;;;5.07;4.75;;;22.00;48.50;;;;;;20975;6711;274949;31
2023/09/06 07:24:13;;;;;;;5.28;4.97;;;22.40;47.50;;;;;;20969;6713;275779;31
2023/09/06 07:26:36;;;;;;;4.70;4.40;;;22.90;46.80;;;;;;21181;6711;76928;31
2023/09/06 07:29:03;;;;;;;5.03;4.50;;;23.10;46.50;;;;;;21186;6711;67099;31
2023/09/06 07:31:27;;;;;;;6.53;4.85;;;23.00;46.60;;;;;;20963;6713;306912;31
2023/09/06 07:33:54;;;;;;;5.12;4.72;;;23.30;46.10;;;;;;20973;6711;332774;31
2023/09/06 07:36:19;;;;;;;5.07;4.67;;;23.70;44.80;;;;;;21182;6711;68700;31
2023/09/06 07:38:44;;;;;;;5.18;4.78;;;23.80;45.00;;;;;;20972;6711;303974;31
2023/09/06 07:41:11;;;;;;;4.70;4.33;;;24.00;44.50;;;;;;21188;6711;65926;31
2023/09/06 07:43:35;;;;;;;5.40;4.90;;;24.00;44.50;;;;;;20964;6711;304394;31
2023/09/06 07:46:01;;;;;;;5.53;4.30;;;24.30;43.70;;;;;;21183;6711;66126;31
2023/09/06 07:48:26;;;;;;;5.37;4.97;;;24.30;43.90;;;;;;20967;6711;274415;31
2023/09/06 07:50:52;;;;;;;5.28;4.87;;;24.60;43.40;;;;;;20975;6711;304525;31
2023/09/06 07:53:18;;;;;;;5.07;4.78;;;25.00;42.00;;;;;;20970;6711;305430;31
2023/09/06 07:55:43;;;;;;;5.30;4.90;;;25.40;41.20;;;;;;21187;6710;66357;31
2023/09/06 07:58:09;;;;;;;5.05;4.75;;;25.30;42.20;;;;;;20962;6711;277020;31
2023/09/06 08:00:36;;;;;;;4.63;4.33;;;25.40;41.40;;;;;;21196;6711;66225;31
2023/09/06 08:03:00;;;;;;;5.18;4.78;;;25.40;41.70;;;;;;20973;6711;276876;31
2023/09/06 08:05:26;;;;;;;4.50;4.10;;;25.60;41.30;;;;;;21184;6711;66956;31
2023/09/06 08:07:51;;;;;;;5.10;4.80;;;25.70;41.50;;;;;;20968;6711;308474;31
2023/09/06 08:10:18;;;;;;;5.20;4.80;;;25.90;41.00;;;;;;21186;6713;66132;31
2023/09/06 08:12:42;;;;;;;5.25;4.72;;;26.00;40.70;;;;;;21192;6711;68361;31
2023/09/06 08:15:08;;;;;;;5.60;5.30;;;25.80;40.90;;;;;;20972;6713;304380;31
2023/09/06 08:17:33;;;;;;;4.83;4.53;;;26.00;39.70;;;;;;21191;6711;67041;31
2023/09/06 08:19:59;;;;;;;5.17;4.77;;;26.00;40.10;;;;;;21190;6711;66226;31
2023/09/06 08:22:25;;;;;;;6.50;4.65;;;25.90;40.80;;;;;;21192;6711;66209;31
2023/09/06 08:24:50;;;;;;;6.67;5.23;;;25.80;41.20;;;;;;20976;6711;303408;31
2023/09/06 08:27:16;;;;;;;5.97;4.65;;;26.10;40.80;;;;;;21192;6711;71633;31
2023/09/06 08:29:41;;;;;;;4.73;4.33;;;26.20;41.60;;;;;;20973;6711;296292;31
2023/09/06 08:32:08;;;;;;;4.03;3.83;;;26.50;40.20;;;;;;21182;6711;66075;31
2023/09/06 08:34:32;;;;;;;4.63;4.33;;;26.60;40.10;;;;;;21186;6711;66169;31
2023/09/06 08:36:58;;;;;;;4.43;4.03;;;26.60;40.30;;;;;;21186;6711;67385;31
2023/09/06 08:39:24;;;;;;;4.05;3.80;;;26.60;40.30;;;;;;21185;6711;66069;31
2023/09/06 08:41:49;;;;;;;4.80;4.20;;;26.70;40.30;;;;;;21189;6711;65629;31
2023/09/06 08:44:15;;;;;;;4.33;4.00;;;26.80;40.30;;;;;;21184;6711;70111;31
2023/09/06 08:46:41;;;;;;;4.97;4.68;;;27.00;40.10;;;;;;20964;6711;274947;31
2023/09/06 08:49:06;;;;;;;4.50;4.20;;;27.40;38.00;;;;;;21175;6711;65752;31
2023/09/06 08:51:35;;;;;;;4.20;3.90;;;27.50;38.40;;;;;;21180;6711;65637;31
2023/09/06 08:53:57;;;;;;;4.00;3.80;;;27.50;38.60;;;;;;21177;6711;72662;31
2023/09/06 08:56:22;;;;;;;3.93;3.73;;;27.50;38.90;;;;;;21183;6711;66029;31
2023/09/06 08:58:48;;;;;;;4.32;4.03;;;27.60;39.20;;;;;;21190;6711;66740;31
2023/09/06 09:01:14;;;;;;;4.10;3.80;;;27.70;39.30;;;;;;21178;6711;71052;31
2023/09/06 09:03:39;;;;;;;4.50;4.20;;;27.80;39.10;;;;;;20975;6711;274741;31
2023/09/06 09:06:09;;;;;;;4.62;4.22;;;28.30;37.90;;;;;;20963;6713;278797;31
2023/09/06 09:08:33;;;;;;;4.63;4.30;;;28.90;38.00;;;;;;20956;6710;307440;31
2023/09/06 09:11:12;;;;;;;4.75;4.35;;;29.40;36.20;;;;;;21175;6711;65913;31
2023/09/06 09:13:37;;;;;;;4.90;4.37;;;29.50;36.40;;;;;;21191;6711;65941;31
2023/09/06 09:16:09;;;;;;;4.37;3.83;;;29.40;36.70;;;;;;21187;6711;66566;31
2023/09/06 09:18:38;;;;;;;5.20;4.80;;;29.30;36.80;;;;;;21172;6711;89797;31
2023/09/06 09:21:05;;;;;;;5.23;4.93;;;29.20;37.10;;;;;;21172;6711;65740;31
2023/09/06 09:23:31;;;;;;;6.83;6.33;;;29.10;37.00;;;;;;20942;6711;274736;31
2023/09/06 09:25:56;;;;;;;6.35;5.85;;;29.30;36.40;;;;;;20972;6711;274199;31
2023/09/06 09:28:22;;;;;;;6.15;5.75;;;29.60;36.10;;;;;;20964;6711;276572;31
2023/09/06 09:30:47;;;;;;;5.17;4.77;;;30.00;35.50;;;;;;21183;6711;67127;31
2023/09/06 09:33:13;;;;;;;5.17;4.77;;;29.90;35.80;;;;;;21187;6711;65949;31
2023/09/06 09:35:40;;;;;;;5.03;4.57;;;29.50;36.30;;;;;;21176;6711;66134;31
2023/09/06 09:38:06;;;;;;;5.03;4.70;;;29.40;36.70;;;;;;21171;6711;66517;31
2023/09/06 09:40:33;;;;;;;4.93;4.62;;;29.20;36.90;;;;;;20962;6711;303517;31
2023/09/06 09:42:58;;;;;;;5.00;4.70;;;29.40;36.20;;;;;;20966;6711;300145;31
2023/09/06 09:45:24;;;;;;;4.80;4.37;;;29.70;36.20;;;;;;21173;6711;69347;31
2023/09/06 09:47:49;;;;;;;5.00;4.60;;;29.80;36.30;;;;;;21179;6711;73229;31
2023/09/06 09:50:15;;;;;;;5.40;5.00;;;29.70;36.50;;;;;;20968;6711;307901;31
2023/09/06 09:52:40;;;;;;;5.30;4.85;;;29.90;35.70;;;;;;21185;6711;66161;31
2023/09/06 09:55:06;;;;;;;4.43;4.18;;;29.90;35.70;;;;;;21176;6713;66393;31
2023/09/06 09:57:31;;;;;;;5.27;4.80;;;29.80;36.00;;;;;;20961;6711;274935;31
2023/09/06 09:59:57;;;;;;;5.67;5.37;;;30.00;36.00;;;;;;21180;6711;66547;31
2023/09/06 10:02:23;;;;;;;4.43;4.22;;;30.00;35.80;;;;;;21186;6711;68303;31
2023/09/06 10:04:48;;;;;;;5.30;5.00;;;29.90;36.20;;;;;;21177;6711;67788;31
2023/09/06 10:07:14;;;;;;;5.07;4.70;;;29.80;36.20;;;;;;20969;6711;295927;31
2023/09/06 10:09:39;;;;;;;4.60;4.30;;;30.00;35.70;;;;;;21181;6711;65667;31
2023/09/06 10:12:08;;;;;;;4.78;4.47;;;30.00;35.70;;;;;;20968;6711;306403;31
2023/09/06 10:14:33;;;;;;;5.00;4.50;;;30.20;35.40;;;;;;21180;6711;66241;31
2023/09/06 10:16:59;;;;;;;6.07;4.90;;;30.20;35.40;;;;;;21185;6711;66982;31
2023/09/06 10:19:25;;;;;;;5.25;4.95;;;30.10;35.40;;;;;;21178;6710;65965;31
2023/09/06 10:21:50;;;;;;;6.13;4.30;;;29.90;35.70;;;;;;21184;6711;66435;31
2023/09/06 10:24:19;;;;;;;4.43;4.03;;;29.80;36.30;;;;;;21192;6711;66142;31
2023/09/06 10:26:45;;;;;;;5.00;4.70;;;29.80;36.50;;;;;;20964;6711;274454;31
2023/09/06 10:29:10;;;;;;;5.30;4.90;;;30.00;36.00;;;;;;20953;6711;303355;31
2023/09/06 10:31:35;;;;;;;4.90;4.50;;;30.50;35.40;;;;;;21169;6711;66183;31
2023/09/06 10:34:02;;;;;;;5.35;5.05;;;30.40;35.20;;;;;;20929;6711;277060;31
2023/09/06 10:36:28;;;;;;;6.90;6.40;;;30.50;35.30;;;;;;20958;6711;304073;31
2023/09/06 10:39:03;;;;;;;5.37;4.97;;;30.60;35.00;;;;;;21181;6711;67082;31
2023/09/06 10:41:19;;;;;;;5.40;5.07;;;30.50;35.40;;;;;;20874;6711;274151;31
2023/09/06 10:43:57;;;;;;;5.68;5.25;;;30.40;35.60;;;;;;20956;6711;303739;31
2023/09/06 10:46:26;;;;;;;5.22;4.80;;;30.50;35.50;;;;;;21011;6698;303408;31
2023/09/06 10:49:19;;;;;;;4.95;4.65;;;30.70;36.30;;;;;;21172;6711;69727;31
2023/09/06 10:52:03;;;;;;;4.60;4.40;;;30.60;36.00;;;;;;21153;6711;66230;31
2023/09/06 10:54:38;;;;;;;4.90;4.50;;;30.20;36.10;;;;;;21183;6711;67523;31
2023/09/06 10:57:05;;;;;;;5.13;4.87;;;30.00;36.50;;;;;;21176;6711;67513;31
2023/09/06 10:59:29;;;;;;;5.10;4.80;;;29.80;36.60;;;;;;20954;6711;304911;31
2023/09/06 11:02:19;;;;;;;5.50;5.10;;;29.90;36.60;;;;;;20967;6711;304083;31
2023/09/06 11:04:44;;;;;;;5.33;4.83;;;30.20;36.30;;;;;;20852;6713;305117;31
2023/09/06 11:07:10;;;;;;;4.67;4.37;;;30.50;36.20;;;;;;21178;6713;67459;31
2023/09/06 11:09:43;;;;;;;5.10;4.70;;;30.50;36.00;;;;;;20971;6711;274614;31
2023/09/06 11:12:12;;;;;;;5.00;4.70;;;30.50;35.80;;;;;;21178;6711;66770;31
2023/09/06 11:14:37;;;;;;;6.43;6.03;;;30.40;36.10;;;;;;21179;6711;66764;31
2023/09/06 11:17:03;;;;;;;5.07;4.78;;;30.10;36.50;;;;;;20967;6711;335274;31
2023/09/06 11:19:29;;;;;;;5.10;4.70;;;30.10;36.30;;;;;;21187;6711;67228;31
2023/09/06 11:22:04;;;;;;;5.40;5.00;;;30.10;36.40;;;;;;20969;6711;304186;31
2023/09/06 11:24:37;;;;;;;5.10;4.80;;;30.20;36.60;;;;;;21183;6711;67487;31
2023/09/06 11:27:16;;;;;;;5.73;5.33;;;30.20;36.70;;;;;;20954;6711;295992;31
2023/09/06 11:29:43;;;;;;;5.45;5.05;;;30.30;36.30;;;;;;20963;6711;332601;31
2023/09/06 11:32:07;;;;;;;5.50;5.20;;;30.50;36.80;;;;;;20970;6710;304167;31
2023/09/06 11:34:36;;;;;;;5.95;5.45;;;30.70;36.20;;;;;;20958;6711;303417;31
2023/09/06 11:37:03;;;;;;;5.50;5.07;;;30.70;36.30;;;;;;20947;6711;275476;31
2023/09/06 11:39:28;;;;;;;5.47;5.07;;;30.90;36.30;;;;;;21173;6711;66213;31
2023/09/06 11:41:52;;;;;;;6.47;4.87;;;30.70;36.40;;;;;;21175;6711;66570;31
2023/09/06 11:44:19;;;;;;;5.55;5.12;;;30.50;37.10;;;;;;20964;6711;304149;31
2023/09/06 11:46:43;;;;;;;5.78;5.37;;;30.50;37.00;;;;;;20966;6711;303757;31
2023/09/06 11:49:08;;;;;;;5.50;5.10;;;30.70;37.00;;;;;;20972;6711;336194;31
2023/09/06 11:51:34;;;;;;;5.57;5.18;;;30.80;36.90;;;;;;20949;6711;304585;31
2023/09/06 11:54:03;;;;;;;4.53;4.23;;;31.00;36.50;;;;;;21182;6711;67812;31
2023/09/06 11:56:33;;;;;;;5.90;5.50;;;30.90;36.60;;;;;;20963;6711;304989;31
2023/09/06 11:58:54;;;;;;;5.85;5.45;;;30.90;37.50;;;;;;20939;6711;303689;31
2023/09/06 12:01:19;;;;;;;5.30;5.00;;;31.10;36.80;;;;;;21189;6711;66689;31
2023/09/06 12:03:45;;;;;;;5.40;5.00;;;31.00;36.50;;;;;;20958;6713;275845;31
2023/09/06 12:06:10;;;;;;;5.30;4.90;;;31.00;36.50;;;;;;21179;6713;66587;31
2023/09/06 12:08:36;;;;;;;5.00;4.70;;;30.90;36.60;;;;;;21179;6711;68860;31
2023/09/06 12:11:11;;;;;;;5.80;5.45;;;30.70;36.90;;;;;;20964;6711;304299;31
2023/09/06 12:13:35;;;;;;;4.80;4.60;;;30.70;37.20;;;;;;21174;6711;65865;31
2023/09/06 12:15:59;;;;;;;5.55;5.15;;;30.70;37.10;;;;;;20958;6711;304166;31
2023/09/06 12:18:25;;;;;;;5.93;5.50;;;30.70;37.30;;;;;;20967;6711;275358;31
2023/09/06 12:20:50;;;;;;;5.23;4.90;;;31.00;36.80;;;;;;21178;6711;66676;31
2023/09/06 12:23:16;;;;;;;5.67;5.37;;;30.90;36.80;;;;;;21181;6711;66090;31
2023/09/06 12:25:41;;;;;;;5.10;4.60;;;30.60;37.10;;;;;;21168;6711;66213;31
2023/09/06 12:28:07;;;;;;;5.27;4.93;;;30.50;37.40;;;;;;21174;6711;67526;31
2023/09/06 12:30:33;;;;;;;4.77;4.50;;;30.40;37.70;;;;;;21179;6711;66528;31
2023/09/06 12:32:58;;;;;;;5.20;4.80;;;30.30;38.00;;;;;;20962;6711;306492;31
2023/09/06 12:35:24;;;;;;;5.28;4.87;;;30.60;38.50;;;;;;20960;6711;303782;31
2023/09/06 12:37:49;;;;;;;5.07;4.68;;;30.90;36.90;;;;;;20954;6711;296078;31
2023/09/06 12:40:15;;;;;;;4.93;4.53;;;31.20;36.90;;;;;;21184;6711;76584;31
2023/09/06 12:42:44;;;;;;;4.80;4.60;;;31.20;36.60;;;;;;21182;6710;66602;31
2023/09/06 12:45:26;;;;;;;5.00;4.70;;;31.00;36.70;;;;;;21161;6711;93722;31
2023/09/06 12:47:51;;;;;;;4.57;4.37;;;30.70;36.80;;;;;;20782;6712;66166;31
2023/09/06 12:50:17;;;;;;;5.27;4.87;;;30.60;37.00;;;;;;20993;6703;302274;31
2023/09/06 12:52:42;;;;;;;4.80;4.50;;;30.70;36.70;;;;;;21180;6713;66726;31